sensor_id;sensor_type;location;lat;lon;timestamp;pressure;altitude;pressure_sealevel;temperature;humidity
29909;BME280;36247;51.952;6.146;2023-02-18T00:02:20;102065.31;;;9.29;100.00
29909;BME280;36247;51.952;6.146;2023-02-18T00:04:46;102063.50;;;9.28;100.00
29909;BME280;36247;51.952;6.146;2023-02-18T00:07:11;102065.31;;;9.29;100.00
29909;BME280;36247;51.952;6.146;2023-02-18T00:09:37;102050.34;;;9.29;100.00
29909;BME280;36247;51.952;6.146;2023-02-18T00:12:03;102046.69;;;9.26;100.00
29909;BME280;36247;51.952;6.146;2023-02-18T00:14:28;102046.63;;;9.24;100.00
29909;BME280;36247;51.952;6.146;2023-02-18T00:16:54;102045.78;;;9.25;100.00
29909;BME280;36247;51.952;6.146;2023-02-18T00:19:19;102044.81;;;9.23;100.00
29909;BME280;36247;51.952;6.146;2023-02-18T00:21:45;102035.19;;;9.25;100.00
29909;BME280;36247;51.952;6.146;2023-02-18T00:24:13;102044.81;;;9.23;100.00
29909;BME280;36247;51.952;6.146;2023-02-18T00:26:42;102029.06;;;9.26;100.00
29909;BME280;36247;51.952;6.146;2023-02-18T00:29:08;102036.94;;;9.25;100.00
29909;BME280;36247;51.952;6.146;2023-02-18T00:31:35;102031.59;;;9.23;100.00
29909;BME280;36247;51.952;6.146;2023-02-18T00:34:02;102036.84;;;9.22;100.00
29909;BME280;36247;51.952;6.146;2023-02-18T00:36:28;102035.09;;;9.22;100.00
29909;BME280;36247;51.952;6.146;2023-02-18T00:38:57;102040.38;;;9.22;100.00
29909;BME280;36247;51.952;6.146;2023-02-18T00:41:25;102033.31;;;9.21;100.00
29909;BME280;36247;51.952;6.146;2023-02-18T00:43:51;102037.72;;;9.22;100.00
29909;BME280;36247;51.952;6.146;2023-02-18T00:46:19;102027.16;;;9.22;100.00
29909;BME280;36247;51.952;6.146;2023-02-18T00:48:44;102023.63;;;9.22;100.00
29909;BME280;36247;51.952;6.146;2023-02-18T00:51:10;102015.69;;;9.22;100.00
29909;BME280;36247;51.952;6.146;2023-02-18T00:53:36;102013.09;;;9.23;100.00
29909;BME280;36247;51.952;6.146;2023-02-18T00:56:02;102006.06;;;9.24;100.00
29909;BME280;36247;51.952;6.146;2023-02-18T00:58:28;102009.69;;;9.26;100.00
29909;BME280;36247;51.952;6.146;2023-02-18T01:00:54;102001.81;;;9.27;100.00
29909;BME280;36247;51.952;6.146;2023-02-18T01:03:20;101992.16;;;9.29;100.00
29909;BME280;36247;51.952;6.146;2023-02-18T01:05:47;101994.88;;;9.31;100.00
29909;BME280;36247;51.952;6.146;2023-02-18T01:08:15;101978.13;;;9.30;100.00
29909;BME280;36247;51.952;6.146;2023-02-18T01:10:42;101993.16;;;9.33;100.00
29909;BME280;36247;51.952;6.146;2023-02-18T01:13:09;102002.88;;;9.32;100.00
29909;BME280;36247;51.952;6.146;2023-02-18T01:15:38;101990.53;;;9.33;100.00
29909;BME280;36247;51.952;6.146;2023-02-18T01:18:04;101994.97;;;9.34;100.00
29909;BME280;36247;51.952;6.146;2023-02-18T01:20:35;102002.91;;;9.34;100.00
29909;BME280;36247;51.952;6.146;2023-02-18T01:23:02;102009.03;;;9.33;100.00
29909;BME280;36247;51.952;6.146;2023-02-18T01:25:27;101995.97;;;9.36;100.00
29909;BME280;36247;51.952;6.146;2023-02-18T01:27:53;101994.31;;;9.40;100.00
29909;BME280;36247;51.952;6.146;2023-02-18T01:30:18;102001.41;;;9.41;100.00
29909;BME280;36247;51.952;6.146;2023-02-18T01:32:45;101997.91;;;9.42;100.00
29909;BME280;36247;51.952;6.146;2023-02-18T01:35:13;101988.31;;;9.44;100.00
29909;BME280;36247;51.952;6.146;2023-02-18T01:37:39;101981.22;;;9.43;100.00
29909;BME280;36247;51.952;6.146;2023-02-18T01:40:06;101980.38;;;9.44;100.00
29909;BME280;36247;51.952;6.146;2023-02-18T01:42:32;101972.38;;;9.42;100.00
29909;BME280;36247;51.952;6.146;2023-02-18T01:48:35;101970.47;;;9.38;100.00
29909;BME280;36247;51.952;6.146;2023-02-18T01:51:08;101968.69;;;9.39;100.00
29909;BME280;36247;51.952;6.146;2023-02-18T01:53:43;101956.34;;;9.38;100.00
29909;BME280;36247;51.952;6.146;2023-02-18T01:56:21;101966.94;;;9.38;100.00
29909;BME280;36247;51.952;6.146;2023-02-18T01:58:47;101950.41;;;9.45;100.00
29909;BME280;36247;51.952;6.146;2023-02-18T02:01:13;101953.75;;;9.39;100.00
29909;BME280;36247;51.952;6.146;2023-02-18T02:03:40;101949.34;;;9.40;100.00
29909;BME280;36247;51.952;6.146;2023-02-18T02:06:14;101945.81;;;9.39;100.00
29909;BME280;36247;51.952;6.146;2023-02-18T02:08:40;101955.53;;;9.40;100.00
29909;BME280;36247;51.952;6.146;2023-02-18T02:11:22;101955.53;;;9.40;100.00
29909;BME280;36247;51.952;6.146;2023-02-18T02:16:38;101934.25;;;9.37;100.00
29909;BME280;36247;51.952;6.146;2023-02-18T02:19:34;101928.97;;;9.37;100.00
29909;BME280;36247;51.952;6.146;2023-02-18T02:25:08;101926.34;;;9.37;100.00
29909;BME280;36247;51.952;6.146;2023-02-18T02:33:41;101899.88;;;9.37;100.00
29909;BME280;36247;51.952;6.146;2023-02-18T02:36:15;101891.94;;;9.37;100.00
29909;BME280;36247;51.952;6.146;2023-02-18T02:38:55;101889.25;;;9.35;100.00
29909;BME280;36247;51.952;6.146;2023-02-18T02:47:30;101856.78;;;9.40;100.00
29909;BME280;36247;51.952;6.146;2023-02-18T02:50:20;101854.13;;;9.40;100.00
29909;BME280;36247;51.952;6.146;2023-02-18T02:52:56;101861.34;;;9.44;100.00
29909;BME280;36247;51.952;6.146;2023-02-18T02:55:23;101852.53;;;9.45;100.00
29909;BME280;36247;51.952;6.146;2023-02-18T02:57:53;101842.88;;;9.45;100.00
29909;BME280;36247;51.952;6.146;2023-02-18T03:00:58;101825.34;;;9.49;100.00
29909;BME280;36247;51.952;6.146;2023-02-18T03:03:38;101827.22;;;9.51;100.00
29909;BME280;36247;51.952;6.146;2023-02-18T03:11:45;101814.25;;;9.59;100.00
29909;BME280;36247;51.952;6.146;2023-02-18T03:14:27;101797.47;;;9.59;100.00
29909;BME280;36247;51.952;6.146;2023-02-18T03:17:09;101793.13;;;9.61;100.00
29909;BME280;36247;51.952;6.146;2023-02-18T03:19:48;101790.53;;;9.62;100.00
29909;BME280;36247;51.952;6.146;2023-02-18T03:22:22;101778.13;;;9.61;100.00
29909;BME280;36247;51.952;6.146;2023-02-18T03:24:53;101783.44;;;9.61;100.00
29909;BME280;36247;51.952;6.146;2023-02-18T03:30:13;101771.28;;;9.66;100.00
29909;BME280;36247;51.952;6.146;2023-02-18T03:32:40;101771.38;;;9.69;100.00
29909;BME280;36247;51.952;6.146;2023-02-18T03:35:15;101766.97;;;9.70;100.00
29909;BME280;36247;51.952;6.146;2023-02-18T03:40:52;101754.84;;;9.77;100.00
29909;BME280;36247;51.952;6.146;2023-02-18T03:43:17;101753.00;;;9.74;100.00
29909;BME280;36247;51.952;6.146;2023-02-18T03:45:43;101756.44;;;9.71;100.00
29909;BME280;36247;51.952;6.146;2023-02-18T03:48:08;101757.41;;;9.74;100.00
29909;BME280;36247;51.952;6.146;2023-02-18T03:50:34;101756.47;;;9.73;100.00
29909;BME280;36247;51.952;6.146;2023-02-18T03:52:59;101744.16;;;9.74;100.00
29909;BME280;36247;51.952;6.146;2023-02-18T03:55:25;101745.88;;;9.73;100.00
29909;BME280;36247;51.952;6.146;2023-02-18T03:57:51;101738.88;;;9.74;100.00
29909;BME280;36247;51.952;6.146;2023-02-18T04:00:16;101735.25;;;9.71;100.00
29909;BME280;36247;51.952;6.146;2023-02-18T04:02:42;101723.75;;;9.69;100.00
29909;BME280;36247;51.952;6.146;2023-02-18T04:05:08;101728.16;;;9.69;100.00
29909;BME280;36247;51.952;6.146;2023-02-18T04:07:34;101717.59;;;9.70;100.00
29909;BME280;36247;51.952;6.146;2023-02-18T04:10:00;101719.34;;;9.70;100.00
29909;BME280;36247;51.952;6.146;2023-02-18T04:12:25;101708.75;;;9.70;100.00
29909;BME280;36247;51.952;6.146;2023-02-18T04:14:51;101708.72;;;9.68;100.00
29909;BME280;36247;51.952;6.146;2023-02-18T04:17:17;101699.00;;;9.67;100.00
29909;BME280;36247;51.952;6.146;2023-02-18T04:19:43;101705.97;;;9.65;100.00
29909;BME280;36247;51.952;6.146;2023-02-18T04:22:08;101693.53;;;9.63;100.00
29909;BME280;36247;51.952;6.146;2023-02-18T04:24:34;101697.13;;;9.65;100.00
29909;BME280;36247;51.952;6.146;2023-02-18T04:26:59;101690.88;;;9.63;100.00
29909;BME280;36247;51.952;6.146;2023-02-18T04:29:25;101690.00;;;9.62;100.00
29909;BME280;36247;51.952;6.146;2023-02-18T04:31:50;101694.41;;;9.62;100.00
29909;BME280;36247;51.952;6.146;2023-02-18T04:34:15;101692.66;;;9.62;100.00
29909;BME280;36247;51.952;6.146;2023-02-18T04:36:41;101697.09;;;9.63;100.00
29909;BME280;36247;51.952;6.146;2023-02-18T04:39:06;101690.84;;;9.61;100.00
29909;BME280;36247;51.952;6.146;2023-02-18T04:41:32;101682.91;;;9.61;100.00
29909;BME280;36247;51.952;6.146;2023-02-18T04:43:57;101693.53;;;9.63;100.00
29909;BME280;36247;51.952;6.146;2023-02-18T04:46:23;101696.06;;;9.60;100.00
29909;BME280;36247;51.952;6.146;2023-02-18T04:48:49;101680.25;;;9.61;100.00
29909;BME280;36247;51.952;6.146;2023-02-18T04:51:14;101667.84;;;9.59;100.00
29909;BME280;36247;51.952;6.146;2023-02-18T04:53:40;101673.97;;;9.58;100.00
29909;BME280;36247;51.952;6.146;2023-02-18T04:56:05;101670.50;;;9.59;100.00
29909;BME280;36247;51.952;6.146;2023-02-18T04:58:31;101658.16;;;9.59;100.00
29909;BME280;36247;51.952;6.146;2023-02-18T05:01:00;101657.22;;;9.57;100.00
29909;BME280;36247;51.952;6.146;2023-02-18T05:03:26;101660.72;;;9.56;100.00
29909;BME280;36247;51.952;6.146;2023-02-18T05:05:52;101658.06;;;9.56;100.00
29909;BME280;36247;51.952;6.146;2023-02-18T05:08:17;101654.56;;;9.57;100.00
29909;BME280;36247;51.952;6.146;2023-02-18T05:10:43;101640.38;;;9.55;100.00
29909;BME280;36247;51.952;6.146;2023-02-18T05:13:09;101623.59;;;9.53;100.00
29909;BME280;36247;51.952;6.146;2023-02-18T05:15:34;101632.44;;;9.55;100.00
29909;BME280;36247;51.952;6.146;2023-02-18T05:18:00;101626.22;;;9.53;100.00
29909;BME280;36247;51.952;6.146;2023-02-18T05:20:26;101622.75;;;9.54;100.00
29909;BME280;36247;51.952;6.146;2023-02-18T05:22:51;101624.41;;;9.52;100.00
29909;BME280;36247;51.952;6.146;2023-02-18T05:25:17;101624.47;;;9.53;100.00
29909;BME280;36247;51.952;6.146;2023-02-18T05:27:42;101616.53;;;9.53;100.00
29909;BME280;36247;51.952;6.146;2023-02-18T05:30:08;101618.28;;;9.53;100.00
29909;BME280;36247;51.952;6.146;2023-02-18T05:32:33;101615.66;;;9.53;100.00
29909;BME280;36247;51.952;6.146;2023-02-18T05:34:59;101614.81;;;9.54;100.00
29909;BME280;36247;51.952;6.146;2023-02-18T05:37:24;101615.66;;;9.53;100.00
29909;BME280;36247;51.952;6.146;2023-02-18T05:39:49;101616.50;;;9.52;100.00
29909;BME280;36247;51.952;6.146;2023-02-18T05:42:15;101604.28;;;9.56;100.00
29909;BME280;36247;51.952;6.146;2023-02-18T05:44:40;101593.69;;;9.56;100.00
29909;BME280;36247;51.952;6.146;2023-02-18T05:47:08;101598.06;;;9.55;100.00
29909;BME280;36247;51.952;6.146;2023-02-18T05:49:34;101596.34;;;9.56;100.00
29909;BME280;36247;51.952;6.146;2023-02-18T05:52:00;101602.47;;;9.55;100.00
29909;BME280;36247;51.952;6.146;2023-02-18T05:54:26;101609.56;;;9.56;100.00
29909;BME280;36247;51.952;6.146;2023-02-18T05:56:52;101601.66;;;9.57;100.00
29909;BME280;36247;51.952;6.146;2023-02-18T05:59:19;101587.47;;;9.55;100.00
29909;BME280;36247;51.952;6.146;2023-02-18T06:01:45;101600.66;;;9.53;100.00
29909;BME280;36247;51.952;6.146;2023-02-18T06:04:10;101585.56;;;9.49;100.00
29909;BME280;36247;51.952;6.146;2023-02-18T06:06:36;101581.22;;;9.51;100.00
29909;BME280;36247;51.952;6.146;2023-02-18T06:09:03;101578.53;;;9.50;100.00
29909;BME280;36247;51.952;6.146;2023-02-18T06:11:28;101585.63;;;9.51;100.00
29909;BME280;36247;51.952;6.146;2023-02-18T06:13:54;101577.63;;;9.49;100.00
29909;BME280;36247;51.952;6.146;2023-02-18T06:16:19;101591.69;;;9.48;100.00
29909;BME280;36247;51.952;6.146;2023-02-18T06:18:44;101582.00;;;9.49;100.00
29909;BME280;36247;51.952;6.146;2023-02-18T06:21:10;101576.66;;;9.47;100.00
29909;BME280;36247;51.952;6.146;2023-02-18T06:23:35;101582.84;;;9.48;100.00
29909;BME280;36247;51.952;6.146;2023-02-18T06:26:01;101579.38;;;9.49;100.00
29909;BME280;36247;51.952;6.146;2023-02-18T06:28:26;101579.31;;;9.47;100.00
29909;BME280;36247;51.952;6.146;2023-02-18T06:30:52;101585.50;;;9.48;100.00
29909;BME280;36247;51.952;6.146;2023-02-18T06:33:17;101585.56;;;9.49;100.00
29909;BME280;36247;51.952;6.146;2023-02-18T06:35:52;101601.44;;;9.49;100.00
29909;BME280;36247;51.952;6.146;2023-02-18T06:38:17;101592.59;;;9.49;100.00
29909;BME280;36247;51.952;6.146;2023-02-18T06:40:45;101595.22;;;9.49;100.00
29909;BME280;36247;51.952;6.146;2023-02-18T06:43:11;101599.63;;;9.48;100.00
29909;BME280;36247;51.952;6.146;2023-02-18T06:45:38;101592.53;;;9.47;100.00
29909;BME280;36247;51.952;6.146;2023-02-18T06:48:03;101585.44;;;9.46;100.00
29909;BME280;36247;51.952;6.146;2023-02-18T06:50:29;101596.91;;;9.45;100.00
29909;BME280;36247;51.952;6.146;2023-02-18T06:52:54;101591.66;;;9.47;100.00
29909;BME280;36247;51.952;6.146;2023-02-18T06:55:20;101603.97;;;9.46;100.00
29909;BME280;36247;51.952;6.146;2023-02-18T06:57:45;101609.22;;;9.45;100.00
29909;BME280;36247;51.952;6.146;2023-02-18T07:00:11;101590.59;;;9.42;100.00
29909;BME280;36247;51.952;6.146;2023-02-18T07:02:36;101598.44;;;9.39;100.00
29909;BME280;36247;51.952;6.146;2023-02-18T07:05:02;101604.69;;;9.41;100.00
29909;BME280;36247;51.952;6.146;2023-02-18T07:07:27;101607.34;;;9.41;100.00
29909;BME280;36247;51.952;6.146;2023-02-18T07:09:53;101597.59;;;9.40;100.00
29909;BME280;36247;51.952;6.146;2023-02-18T07:12:18;101608.19;;;9.40;100.00
29909;BME280;36247;51.952;6.146;2023-02-18T07:14:43;101610.00;;;9.41;100.00
29909;BME280;36247;51.952;6.146;2023-02-18T07:17:09;101608.19;;;9.40;100.00
29909;BME280;36247;51.952;6.146;2023-02-18T07:19:34;101606.34;;;9.37;100.00
29909;BME280;36247;51.952;6.146;2023-02-18T07:22:00;101590.47;;;9.37;100.00
29909;BME280;36247;51.952;6.146;2023-02-18T07:24:25;101601.00;;;9.35;100.00
29909;BME280;36247;51.952;6.146;2023-02-18T07:26:51;101605.44;;;9.37;100.00
29909;BME280;36247;51.952;6.146;2023-02-18T07:29:16;101614.25;;;9.37;100.00
29909;BME280;36247;51.952;6.146;2023-02-18T07:31:42;101603.69;;;9.37;100.00
29909;BME280;36247;51.952;6.146;2023-02-18T07:34:07;101612.50;;;9.36;100.00
29909;BME280;36247;51.952;6.146;2023-02-18T07:36:33;101606.28;;;9.35;100.00
29909;BME280;36247;51.952;6.146;2023-02-18T07:38:58;101613.34;;;9.35;100.00
29909;BME280;36247;51.952;6.146;2023-02-18T07:41:24;101613.28;;;9.33;100.00
29909;BME280;36247;51.952;6.146;2023-02-18T07:43:49;101622.91;;;9.31;100.00
29909;BME280;36247;51.952;6.146;2023-02-18T07:46:15;101603.50;;;9.31;100.00
29909;BME280;36247;51.952;6.146;2023-02-18T07:48:41;101603.50;;;9.31;100.00
29909;BME280;36247;51.952;6.146;2023-02-18T07:51:08;101608.84;;;9.32;100.00
29909;BME280;36247;51.952;6.146;2023-02-18T07:53:35;101598.13;;;9.28;100.00
29909;BME280;36247;51.952;6.146;2023-02-18T07:56:00;101594.53;;;9.26;100.00
29909;BME280;36247;51.952;6.146;2023-02-18T07:58:28;101606.00;;;9.26;100.00
29909;BME280;36247;51.952;6.146;2023-02-18T08:00:55;101591.91;;;9.26;100.00
29909;BME280;36247;51.952;6.146;2023-02-18T08:03:24;101584.06;;;9.29;100.00
29909;BME280;36247;51.952;6.146;2023-02-18T08:05:50;101592.88;;;9.29;100.00
29909;BME280;36247;51.952;6.146;2023-02-18T08:08:21;101581.47;;;9.30;100.00
29909;BME280;36247;51.952;6.146;2023-02-18T08:10:47;101596.47;;;9.31;100.00
29909;BME280;36247;51.952;6.146;2023-02-18T08:13:13;101591.16;;;9.31;100.00
29909;BME280;36247;51.952;6.146;2023-02-18T08:15:39;101591.13;;;9.30;100.00
29909;BME280;36247;51.952;6.146;2023-02-18T08:18:06;101588.53;;;9.31;100.00
29909;BME280;36247;51.952;6.146;2023-02-18T08:20:36;101600.06;;;9.33;100.00
29909;BME280;36247;51.952;6.146;2023-02-18T08:23:03;101596.69;;;9.38;100.00
29909;BME280;36247;51.952;6.146;2023-02-18T08:25:29;101596.63;;;9.36;100.00
29909;BME280;36247;51.952;6.146;2023-02-18T08:27:55;101598.41;;;9.37;100.00
29909;BME280;36247;51.952;6.146;2023-02-18T08:30:21;101597.50;;;9.37;100.00
29909;BME280;36247;51.952;6.146;2023-02-18T08:32:46;101598.34;;;9.35;100.00
29909;BME280;36247;51.952;6.146;2023-02-18T08:35:11;101594.06;;;9.39;100.00
29909;BME280;36247;51.952;6.146;2023-02-18T08:37:37;101601.09;;;9.39;100.00
29909;BME280;36247;51.952;6.146;2023-02-18T08:40:03;101621.25;;;9.35;100.00
29909;BME280;36247;51.952;6.146;2023-02-18T08:42:29;101592.22;;;9.37;100.00
29909;BME280;36247;51.952;6.146;2023-02-18T08:44:54;101601.00;;;9.35;100.00
29909;BME280;36247;51.952;6.146;2023-02-18T08:47:20;101598.97;;;9.27;100.00
29909;BME280;36247;51.952;6.146;2023-02-18T08:49:45;101594.34;;;9.20;100.00
29909;BME280;36247;51.952;6.146;2023-02-18T08:52:11;101626.91;;;9.18;100.00
29909;BME280;36247;51.952;6.146;2023-02-18T08:54:36;101600.53;;;9.20;100.00
29909;BME280;36247;51.952;6.146;2023-02-18T08:57:01;101589.84;;;9.17;100.00
29909;BME280;36247;51.952;6.146;2023-02-18T08:59:27;101602.97;;;9.14;100.00
29909;BME280;36247;51.952;6.146;2023-02-18T09:01:53;101595.88;;;9.13;100.00
29909;BME280;36247;51.952;6.146;2023-02-18T09:04:18;101622.56;;;9.21;100.00
29909;BME280;36247;51.952;6.146;2023-02-18T09:06:46;101608.50;;;9.22;100.00
29909;BME280;36247;51.952;6.146;2023-02-18T09:09:11;101603.03;;;9.15;100.00
29909;BME280;36247;51.952;6.146;2023-02-18T09:11:36;101618.84;;;9.14;100.00
29909;BME280;36247;51.952;6.146;2023-02-18T09:14:02;101613.56;;;9.14;100.00
29909;BME280;36247;51.952;6.146;2023-02-18T09:16:28;101614.84;;;8.99;100.00
29909;BME280;36247;51.952;6.146;2023-02-18T09:18:55;101609.56;;;8.99;100.00
29909;BME280;36247;51.952;6.146;2023-02-18T09:21:20;101603.00;;;8.88;100.00
29909;BME280;36247;51.952;6.146;2023-02-18T09:23:48;101613.66;;;8.90;100.00
29909;BME280;36247;51.952;6.146;2023-02-18T09:26:15;101616.22;;;8.88;100.00
29909;BME280;36247;51.952;6.146;2023-02-18T09:28:41;101614.31;;;8.82;100.00
29909;BME280;36247;51.952;6.146;2023-02-18T09:31:09;101619.47;;;8.79;100.00
29909;BME280;36247;51.952;6.146;2023-02-18T09:33:37;101617.72;;;8.80;100.00
29909;BME280;36247;51.952;6.146;2023-02-18T09:36:03;101618.47;;;8.76;100.00
29909;BME280;36247;51.952;6.146;2023-02-18T09:38:29;101619.19;;;8.72;100.00
29909;BME280;36247;51.952;6.146;2023-02-18T09:40:56;101627.03;;;8.69;100.00
29909;BME280;36247;51.952;6.146;2023-02-18T09:45:57;101620.84;;;8.68;100.00
29909;BME280;36247;51.952;6.146;2023-02-18T09:48:27;101618.16;;;8.67;100.00
29909;BME280;36247;51.952;6.146;2023-02-18T09:50:53;101621.78;;;8.70;100.00
29909;BME280;36247;51.952;6.146;2023-02-18T09:53:21;101618.50;;;8.77;100.00
29909;BME280;36247;51.952;6.146;2023-02-18T09:55:48;101639.81;;;8.82;100.00
29909;BME280;36247;51.952;6.146;2023-02-18T09:58:29;101630.16;;;8.82;100.00
29909;BME280;36247;51.952;6.146;2023-02-18T10:01:05;101647.03;;;8.88;100.00
29909;BME280;36247;51.952;6.146;2023-02-18T10:03:34;101631.34;;;8.92;100.00
29909;BME280;36247;51.952;6.146;2023-02-18T10:06:04;101629.72;;;8.96;100.00
29909;BME280;36247;51.952;6.146;2023-02-18T10:08:36;101624.47;;;8.97;100.00
29909;BME280;36247;51.952;6.146;2023-02-18T10:11:03;101643.09;;;9.00;100.00
29909;BME280;36247;51.952;6.146;2023-02-18T10:13:31;101635.16;;;9.00;100.00
29909;BME280;36247;51.952;6.146;2023-02-18T10:15:57;101650.19;;;9.03;100.00
29909;BME280;36247;51.952;6.146;2023-02-18T10:18:34;101657.22;;;9.03;100.00
29909;BME280;36247;51.952;6.146;2023-02-18T10:21:13;101640.59;;;9.05;100.00
29909;BME280;36247;51.952;6.146;2023-02-18T10:23:42;101651.25;;;9.08;100.00
29909;BME280;36247;51.952;6.146;2023-02-18T10:26:14;101654.53;;;9.01;100.00
29909;BME280;36247;51.952;6.146;2023-02-18T10:28:41;101652.69;;;8.98;100.00
29909;BME280;36247;51.952;6.146;2023-02-18T10:31:09;101656.09;;;8.94;100.00
29909;BME280;36247;51.952;6.146;2023-02-18T10:36:25;101661.38;;;8.94;100.00
29909;BME280;36247;51.952;6.146;2023-02-18T10:41:59;101663.91;;;8.91;100.00
29909;BME280;36247;51.952;6.146;2023-02-18T10:44:42;101662.78;;;8.85;100.00
29909;BME280;36247;51.952;6.146;2023-02-18T10:47:23;101673.47;;;8.88;100.00
29909;BME280;36247;51.952;6.146;2023-02-18T10:50:02;101661.97;;;8.86;100.00
29909;BME280;36247;51.952;6.146;2023-02-18T10:52:36;101666.72;;;8.96;100.00
29909;BME280;36247;51.952;6.146;2023-02-18T10:55:06;101679.22;;;9.02;100.00
29909;BME280;36247;51.952;6.146;2023-02-18T10:57:34;101670.03;;;8.90;100.00
29909;BME280;36247;51.952;6.146;2023-02-18T11:02:40;101668.03;;;8.83;100.00
29909;BME280;36247;51.952;6.146;2023-02-18T11:05:18;101674.09;;;8.80;100.00
29909;BME280;36247;51.952;6.146;2023-02-18T11:07:49;101680.31;;;8.81;100.00
29909;BME280;36247;51.952;6.146;2023-02-18T11:10:28;101668.13;;;8.86;100.00
29909;BME280;36247;51.952;6.146;2023-02-18T11:13:28;101676.06;;;8.86;100.00
29909;BME280;36247;51.952;6.146;2023-02-18T11:16:01;101689.38;;;8.89;100.00
29909;BME280;36247;51.952;6.146;2023-02-18T11:18:37;101670.03;;;8.90;100.00
29909;BME280;36247;51.952;6.146;2023-02-18T11:21:09;101667.50;;;8.93;100.00
29909;BME280;36247;51.952;6.146;2023-02-18T11:23:48;101667.69;;;8.99;100.00
29909;BME280;36247;51.952;6.146;2023-02-18T11:26:15;101668.88;;;9.08;100.00
29909;BME280;36247;51.952;6.146;2023-02-18T11:28:49;101672.41;;;9.08;100.00
29909;BME280;36247;51.952;6.146;2023-02-18T11:31:20;101671.72;;;9.14;100.00
29909;BME280;36247;51.952;6.146;2023-02-18T11:33:49;101660.44;;;9.20;100.00
29909;BME280;36247;51.952;6.146;2023-02-18T11:36:23;101669.47;;;9.26;100.00
29909;BME280;36247;51.952;6.146;2023-02-18T11:41:21;101652.34;;;9.42;100.00
29909;BME280;36247;51.952;6.146;2023-02-18T11:43:49;101651.09;;;9.60;100.00
29909;BME280;36247;51.952;6.146;2023-02-18T11:46:18;101657.47;;;9.65;100.00
29909;BME280;36247;51.952;6.146;2023-02-18T11:48:45;101654.72;;;9.62;100.00
29909;BME280;36247;51.952;6.146;2023-02-18T11:51:18;101651.63;;;9.77;100.00
29909;BME280;36247;51.952;6.146;2023-02-18T11:54:05;101639.44;;;9.82;100.00
29909;BME280;36247;51.952;6.146;2023-02-18T11:56:57;101654.16;;;9.72;100.00
29909;BME280;36247;51.952;6.146;2023-02-18T11:59:23;101664.00;;;9.78;100.00
29909;BME280;36247;51.952;6.146;2023-02-18T12:01:57;101658.09;;;9.86;100.00
29909;BME280;36247;51.952;6.146;2023-02-18T12:04:28;101651.81;;;9.83;100.00
29909;BME280;36247;51.952;6.146;2023-02-18T12:09:53;101644.81;;;9.85;100.00
29909;BME280;36247;51.952;6.146;2023-02-18T12:14:49;101657.13;;;9.83;100.00
29909;BME280;36247;51.952;6.146;2023-02-18T12:20:18;101650.09;;;9.85;100.00
29909;BME280;36247;51.952;6.146;2023-02-18T12:26:21;101657.72;;;9.74;100.00
29909;BME280;36247;51.952;6.146;2023-02-18T12:36:41;101655.41;;;9.56;100.00
29909;BME280;36247;51.952;6.146;2023-02-18T12:42:24;101661.59;;;9.57;100.00
29909;BME280;36247;51.952;6.146;2023-02-18T12:45:34;101667.72;;;9.54;100.00
29909;BME280;36247;51.952;6.146;2023-02-18T12:48:15;101664.00;;;9.49;100.00
29909;BME280;36247;51.952;6.146;2023-02-18T12:53:32;101662.38;;;9.52;100.00
29909;BME280;36247;51.952;6.146;2023-02-18T12:56:40;101668.66;;;9.56;100.00
29909;BME280;36247;51.952;6.146;2023-02-18T12:59:52;101668.00;;;9.63;100.00
29909;BME280;36247;51.952;6.146;2023-02-18T13:03:01;101670.91;;;9.73;100.00
29909;BME280;36247;51.952;6.146;2023-02-18T13:09:13;101665.81;;;9.79;100.00
29909;BME280;36247;51.952;6.146;2023-02-18T13:14:27;101669.38;;;9.79;100.00
29909;BME280;36247;51.952;6.146;2023-02-18T13:16:57;101680.84;;;9.80;100.00
29909;BME280;36247;51.952;6.146;2023-02-18T13:22:21;101671.41;;;9.89;100.00
29909;BME280;36247;51.952;6.146;2023-02-18T13:24:50;101667.00;;;9.88;100.00
29909;BME280;36247;51.952;6.146;2023-02-18T13:27:26;101667.09;;;9.92;100.00
29909;BME280;36247;51.952;6.146;2023-02-18T13:36:08;101665.66;;;10.33;100.00
29909;BME280;36247;51.952;6.146;2023-02-18T13:38:50;101666.44;;;10.63;100.00
29909;BME280;36247;51.952;6.146;2023-02-18T13:41:19;101660.53;;;10.73;100.00
29909;BME280;36247;51.952;6.146;2023-02-18T13:43:45;101658.53;;;10.64;100.00
29909;BME280;36247;51.952;6.146;2023-02-18T13:48:46;101670.53;;;10.50;100.00
29909;BME280;36247;51.952;6.146;2023-02-18T13:51:15;101669.50;;;10.45;100.00
29909;BME280;36247;51.952;6.146;2023-02-18T13:53:43;101664.06;;;10.40;100.00
29909;BME280;36247;51.952;6.146;2023-02-18T13:56:25;101662.94;;;10.32;100.00
29909;BME280;36247;51.952;6.146;2023-02-18T13:58:54;101660.25;;;10.30;100.00
29909;BME280;36247;51.952;6.146;2023-02-18T14:01:37;101661.94;;;10.28;100.00
29909;BME280;36247;51.952;6.146;2023-02-18T14:04:47;101662.81;;;10.27;100.00
29909;BME280;36247;51.952;6.146;2023-02-18T14:09:59;101658.50;;;10.31;100.00
29909;BME280;36247;51.952;6.146;2023-02-18T14:12:39;101665.66;;;10.33;100.00
29909;BME280;36247;51.952;6.146;2023-02-18T14:33:34;101661.13;;;10.31;100.00
29909;BME280;36247;51.952;6.146;2023-02-18T14:50:19;101662.13;;;10.34;100.00
29909;BME280;36247;51.952;6.146;2023-02-18T14:53:06;101656.84;;;10.34;100.00
29909;BME280;36247;51.952;6.146;2023-02-18T14:55:40;101664.66;;;10.31;100.00
29909;BME280;36247;51.952;6.146;2023-02-18T15:00:47;101667.19;;;10.27;100.00
29909;BME280;36247;51.952;6.146;2023-02-18T15:03:15;101682.38;;;10.32;100.00
29909;BME280;36247;51.952;6.146;2023-02-18T15:05:41;101679.69;;;10.31;100.00
29909;BME280;36247;51.952;6.146;2023-02-18T15:08:19;101671.72;;;10.31;100.00
29909;BME280;36247;51.952;6.146;2023-02-18T15:10:48;101667.25;;;10.28;100.00